Aviation Digital Data Service (ADDS)

Output produced by METARs form (1452 UTC 23 January 2019)
found at http://www.aviationweather.gov/metar/data/
 
Forecast for: ESSB (STOCKHOLM/BROMMA, SE)
Text: TAF ESSB 231430Z 2315/2321 VRB02KT 7000 OVC005
Forecast period: 1500 to 2100 UTC 23 January 2019
Forecast type: FROM: standard forecast or significant change
Winds: variable direction winds at 2 MPH (2 knots; 1.0 m/s)
Visibility: 4 miles (7 km)
Ceiling: 500 feet AGL
Clouds: overcast cloud deck at 500 feet AGL
Weather: no significant weather forecast for this period
Text: PROB40 2315/2321 2500 BR OVC003
Forecast period: 1500 to 2100 UTC 23 January 2019
Forecast type: PROBABLE: 40 percent likelihood of the following during this time
Visibility: 1.55 miles (2.49 km)
Ceiling: 300 feet AGL
Clouds: overcast cloud deck at 300 feet AGL
Weather: BR  (mist)